Time;durP1;ratioP1;P1;durP2;ratioP2;P2;SDS_P1;SDS_P2;PMS_P1;PMS_P2;Temp;Humidity;BMP_temperature;BMP_pressure;BME280_temperature;BME280_humidity;BME280_pressure;Samples;Min_cycle;Max_cycle;Signal;HPM_P1;HPM_P2
2023/07/11 00:00:40;;;;;;;4.97;4.15;;;20.00;99.90;;;;;;4178857;28;20041;-59
2023/07/11 00:02:42;;;;;;;5.90;4.50;;;20.00;99.90;;;;;;4177012;28;20513;-64
2023/07/11 00:04:43;;;;;;;6.18;4.00;;;20.00;99.90;;;;;;4178246;28;20036;-60
2023/07/11 00:06:45;;;;;;;4.93;4.40;;;20.00;99.90;;;;;;4177638;28;20067;-58
2023/07/11 00:08:46;;;;;;;8.27;4.72;;;19.90;99.90;;;;;;4177780;28;20037;-60
2023/07/11 00:10:47;;;;;;;5.63;4.25;;;19.90;99.90;;;;;;4178142;28;20059;-59
2023/07/11 00:12:48;;;;;;;5.97;4.07;;;19.90;99.90;;;;;;4177406;28;20087;-60
2023/07/11 00:14:49;;;;;;;6.57;4.65;;;19.90;99.90;;;;;;4178309;28;20024;-58
2023/07/11 00:16:51;;;;;;;8.38;4.97;;;19.80;99.90;;;;;;4175681;28;20029;-61
2023/07/11 00:18:53;;;;;;;7.20;4.70;;;19.80;99.90;;;;;;4177856;28;20029;-62
2023/07/11 00:20:54;;;;;;;8.43;5.45;;;19.70;99.90;;;;;;4177850;28;20044;-60
2023/07/11 00:22:56;;;;;;;5.97;4.55;;;19.70;99.90;;;;;;4178327;28;20074;-61
2023/07/11 00:24:57;;;;;;;6.78;4.88;;;19.70;99.90;;;;;;4177305;28;20503;-61
2023/07/11 00:26:58;;;;;;;7.00;4.30;;;19.50;99.90;;;;;;4178240;28;20025;-58
2023/07/11 00:29:14;;;;;;;5.85;4.45;;;19.60;99.90;;;;;;4177360;28;20033;-59
2023/07/11 00:31:15;;;;;;;6.28;4.32;;;19.50;99.90;;;;;;4178446;28;20061;-58
2023/07/11 00:33:17;;;;;;;9.65;5.13;;;19.40;99.90;;;;;;4176406;28;20055;-60
2023/07/11 00:35:18;;;;;;;5.88;4.50;;;19.40;99.90;;;;;;4178449;28;20041;-56
2023/07/11 00:37:19;;;;;;;5.00;4.50;;;19.30;99.90;;;;;;4176975;28;20032;-58
2023/07/11 00:39:20;;;;;;;6.25;4.60;;;19.40;99.90;;;;;;4178546;28;20135;-60
2023/07/11 00:41:21;;;;;;;7.57;4.95;;;19.40;99.90;;;;;;4177164;28;20439;-59
2023/07/11 00:43:22;;;;;;;12.43;5.32;;;19.40;99.90;;;;;;4178241;28;20420;-60
2023/07/11 00:45:49;;;;;;;4.68;4.05;;;19.40;99.90;;;;;;4177005;28;20029;-59
2023/07/11 00:47:50;;;;;;;4.82;4.00;;;19.40;99.90;;;;;;4176778;28;20040;-65
2023/07/11 00:49:55;;;;;;;6.15;4.80;;;19.40;99.90;;;;;;4177468;28;20443;-58
2023/07/11 00:52:01;;;;;;;5.38;4.63;;;19.40;99.90;;;;;;4177789;28;20033;-63
2023/07/11 00:54:05;;;;;;;8.02;4.43;;;19.30;99.90;;;;;;4177268;28;20017;-60
2023/07/11 00:56:10;;;;;;;7.10;4.35;;;19.20;99.90;;;;;;4177472;28;20087;-59
2023/07/11 00:58:14;;;;;;;6.22;4.32;;;19.20;99.90;;;;;;4176099;28;20415;-59
2023/07/11 01:00:16;;;;;;;5.63;4.70;;;19.20;99.90;;;;;;4176534;28;20833;-59
2023/07/11 01:02:21;;;;;;;7.30;4.68;;;19.20;99.90;;;;;;4176876;28;20041;-56
2023/07/11 01:04:23;;;;;;;6.95;5.38;;;19.20;99.90;;;;;;4175744;28;20102;-60
2023/07/11 01:06:28;;;;;;;6.28;4.70;;;19.20;99.90;;;;;;4177340;28;20049;-61
2023/07/11 01:08:29;;;;;;;8.57;4.78;;;19.20;99.90;;;;;;4175761;28;20091;-58
2023/07/11 01:10:31;;;;;;;6.45;4.50;;;19.20;99.90;;;;;;4177917;28;20090;-66
2023/07/11 01:12:32;;;;;;;5.63;4.68;;;19.20;99.90;;;;;;4176807;28;20041;-61
2023/07/11 01:14:35;;;;;;;8.30;4.72;;;19.20;99.90;;;;;;4177393;28;20044;-60
2023/07/11 01:16:43;;;;;;;9.98;4.25;;;19.20;99.90;;;;;;4175961;28;20094;-59
2023/07/11 01:18:45;;;;;;;7.45;4.63;;;19.10;99.90;;;;;;4177147;28;20098;-62
2023/07/11 01:20:46;;;;;;;5.43;4.55;;;19.10;99.90;;;;;;4170978;28;20048;-57
2023/07/11 01:22:49;;;;;;;6.38;4.97;;;19.00;99.90;;;;;;4177369;28;20444;-59
2023/07/11 01:24:51;;;;;;;5.97;4.65;;;19.00;99.90;;;;;;4176394;28;20087;-60
2023/07/11 01:26:52;;;;;;;8.10;4.88;;;18.90;99.90;;;;;;4176957;28;20057;-58
2023/07/11 01:28:53;;;;;;;6.53;4.60;;;18.90;99.90;;;;;;4176654;28;20021;-60
2023/07/11 01:30:55;;;;;;;5.55;4.13;;;18.90;99.90;;;;;;4175814;28;20669;-59
2023/07/11 01:32:56;;;;;;;6.60;4.65;;;18.90;99.90;;;;;;4176211;28;20049;-60
2023/07/11 01:34:57;;;;;;;7.10;4.97;;;19.00;99.90;;;;;;4176843;28;20063;-60
2023/07/11 01:36:58;;;;;;;5.72;4.55;;;19.00;99.90;;;;;;4177054;28;20734;-59
2023/07/11 01:39:00;;;;;;;7.53;4.72;;;19.00;99.90;;;;;;4176283;28;20017;-60
2023/07/11 01:41:01;;;;;;;6.32;4.35;;;19.00;99.90;;;;;;4177158;28;20045;-60
2023/07/11 01:43:02;;;;;;;4.25;3.72;;;19.00;99.90;;;;;;4176199;28;20580;-61
2023/07/11 01:45:04;;;;;;;4.65;3.97;;;19.10;99.90;;;;;;4177165;28;20539;-62
2023/07/11 01:47:07;;;;;;;5.15;4.18;;;19.10;99.90;;;;;;4176170;28;20114;-58
2023/07/11 01:49:08;;;;;;;6.18;4.55;;;19.10;99.90;;;;;;4177516;28;20446;-60
2023/07/11 01:51:09;;;;;;;5.57;4.15;;;19.10;99.90;;;;;;4175790;28;20041;-60
2023/07/11 01:53:10;;;;;;;6.45;4.22;;;19.10;99.90;;;;;;4177154;28;20087;-62
2023/07/11 01:55:12;;;;;;;8.27;4.68;;;19.10;99.90;;;;;;4176260;28;20053;-61
2023/07/11 01:57:13;;;;;;;7.68;4.53;;;19.10;99.90;;;;;;4176742;28;20036;-59
2023/07/11 01:59:14;;;;;;;4.68;4.03;;;19.10;99.90;;;;;;4175094;28;20443;-59
2023/07/11 02:01:15;;;;;;;11.50;4.72;;;19.00;99.90;;;;;;4176682;28;20049;-59
2023/07/11 02:03:16;;;;;;;7.43;4.82;;;19.00;99.90;;;;;;4176017;28;20087;-56
2023/07/11 02:05:20;;;;;;;5.35;4.60;;;19.00;99.90;;;;;;4176844;28;20029;-62
2023/07/11 02:07:21;;;;;;;6.03;4.53;;;19.00;99.90;;;;;;4176507;28;20079;-57
2023/07/11 02:09:23;;;;;;;5.03;4.45;;;19.00;99.90;;;;;;4176431;28;20435;-58
2023/07/11 02:11:25;;;;;;;5.35;4.53;;;19.00;99.90;;;;;;4176543;28;20037;-61
2023/07/11 02:13:26;;;;;;;6.95;4.28;;;19.00;99.90;;;;;;4176065;28;20424;-59
2023/07/11 02:15:27;;;;;;;5.80;4.30;;;19.00;99.90;;;;;;4177217;28;20477;-59
2023/07/11 02:17:28;;;;;;;13.02;4.15;;;19.00;99.90;;;;;;4176120;28;20037;-57
2023/07/11 02:19:29;;;;;;;8.73;4.20;;;19.00;99.90;;;;;;4179651;28;20307;-62
2023/07/11 02:21:31;;;;;;;5.05;4.30;;;19.00;99.90;;;;;;4179579;28;20066;-60
2023/07/11 02:23:32;;;;;;;6.53;4.47;;;19.00;99.90;;;;;;4179943;28;20045;-59
2023/07/11 02:25:33;;;;;;;7.28;4.43;;;19.00;99.90;;;;;;4178606;28;20033;-60
2023/07/11 02:27:34;;;;;;;5.10;4.60;;;18.90;99.90;;;;;;4179571;28;20071;-58
2023/07/11 02:29:35;;;;;;;7.90;4.45;;;18.90;99.90;;;;;;4179222;28;20033;-59
2023/07/11 02:31:37;;;;;;;6.82;5.00;;;18.90;99.90;;;;;;4180320;28;20029;-58
2023/07/11 02:33:39;;;;;;;5.50;4.97;;;18.80;99.90;;;;;;4178153;28;20037;-64
2023/07/11 02:35:40;;;;;;;7.45;5.00;;;18.80;99.90;;;;;;4180010;28;20416;-61
2023/07/11 02:37:41;;;;;;;5.63;4.20;;;18.80;99.90;;;;;;4179322;28;20021;-59
2023/07/11 02:39:43;;;;;;;5.55;4.30;;;18.80;99.90;;;;;;4178730;28;20033;-60
2023/07/11 02:41:44;;;;;;;6.65;4.53;;;18.80;99.90;;;;;;4178912;28;20404;-59
2023/07/11 02:43:47;;;;;;;5.78;4.63;;;18.70;99.90;;;;;;4178488;28;20087;-68
2023/07/11 02:45:48;;;;;;;6.90;4.60;;;18.70;99.90;;;;;;4179882;28;20021;-60
2023/07/11 02:47:49;;;;;;;7.45;4.90;;;18.70;99.90;;;;;;4178149;28;20074;-60
2023/07/11 02:49:50;;;;;;;7.32;4.97;;;18.60;99.90;;;;;;4179273;28;20041;-64
2023/07/11 02:51:51;;;;;;;8.23;4.45;;;18.50;99.90;;;;;;4178690;28;20033;-61
2023/07/11 02:53:53;;;;;;;8.45;5.07;;;18.40;99.90;;;;;;4179027;28;20040;-61
2023/07/11 02:55:54;;;;;;;7.10;4.50;;;18.30;99.90;;;;;;4178576;28;20040;-59
2023/07/11 02:57:55;;;;;;;6.88;5.22;;;18.30;99.90;;;;;;4179415;28;20448;-58
2023/07/11 02:59:56;;;;;;;6.93;4.75;;;18.30;99.90;;;;;;4178958;28;20033;-60
2023/07/11 03:01:58;;;;;;;6.82;4.88;;;18.40;99.90;;;;;;4179355;28;20099;-58
2023/07/11 03:04:00;;;;;;;6.43;4.78;;;18.40;99.90;;;;;;4178977;28;20024;-55
2023/07/11 03:06:02;;;;;;;6.78;4.60;;;18.50;99.90;;;;;;4179731;28;20074;-60
2023/07/11 03:08:03;;;;;;;6.25;4.88;;;18.50;99.90;;;;;;4179061;28;20462;-60
2023/07/11 03:10:05;;;;;;;11.45;4.88;;;18.50;99.90;;;;;;4178853;28;20041;-58
2023/07/11 03:12:06;;;;;;;6.70;4.30;;;18.50;99.90;;;;;;4179258;28;20547;-59
2023/07/11 03:14:07;;;;;;;5.32;4.82;;;18.50;99.90;;;;;;4178695;28;20074;-60
2023/07/11 03:16:09;;;;;;;11.90;5.15;;;18.50;99.90;;;;;;4179537;28;20021;-58
2023/07/11 03:18:11;;;;;;;6.10;4.90;;;18.50;99.90;;;;;;4178355;28;20082;-62
2023/07/11 03:20:12;;;;;;;11.23;4.70;;;18.50;99.90;;;;;;4179564;28;20014;-59
2023/07/11 03:22:13;;;;;;;7.65;4.85;;;18.50;99.90;;;;;;4178858;28;20041;-61
2023/07/11 03:24:15;;;;;;;13.02;4.57;;;18.50;99.90;;;;;;4179141;28;20033;-61
2023/07/11 03:26:16;;;;;;;6.25;4.68;;;18.50;99.90;;;;;;4177195;28;20564;-59
2023/07/11 03:28:17;;;;;;;6.25;5.05;;;18.50;99.90;;;;;;4178727;28;20090;-59
2023/07/11 03:30:18;;;;;;;8.27;5.20;;;18.50;99.90;;;;;;4177452;28;20432;-60
2023/07/11 03:32:20;;;;;;;8.98;5.65;;;18.50;99.90;;;;;;4178771;28;20029;-59
2023/07/11 03:34:21;;;;;;;16.83;6.53;;;18.50;99.90;;;;;;4177796;28;20044;-59
2023/07/11 03:36:22;;;;;;;15.20;5.70;;;18.50;99.90;;;;;;4178522;28;20091;-59
2023/07/11 03:38:23;;;;;;;13.38;5.28;;;18.50;99.90;;;;;;4177277;28;20021;-61
2023/07/11 03:40:25;;;;;;;10.55;4.70;;;18.30;99.90;;;;;;4178673;28;20033;-60
2023/07/11 03:42:26;;;;;;;11.90;5.18;;;18.10;99.90;;;;;;4178742;28;20149;-69
2023/07/11 03:44:27;;;;;;;11.20;5.20;;;18.00;99.90;;;;;;4177993;28;20036;-61
2023/07/11 03:46:28;;;;;;;10.40;5.25;;;17.90;99.90;;;;;;4179080;28;20027;-61
2023/07/11 03:48:30;;;;;;;9.23;5.30;;;17.80;99.90;;;;;;4177670;28;20059;-59
2023/07/11 03:50:31;;;;;;;9.68;5.40;;;17.70;99.90;;;;;;4178281;28;20493;-60
2023/07/11 03:52:32;;;;;;;8.65;5.57;;;17.60;99.90;;;;;;4178310;28;20079;-64
2023/07/11 03:54:33;;;;;;;6.65;5.03;;;17.80;99.90;;;;;;4178629;28;20034;-59
2023/07/11 03:56:34;;;;;;;9.00;4.88;;;18.00;99.90;;;;;;4177629;28;20550;-59
2023/07/11 03:58:35;;;;;;;12.07;5.85;;;18.10;99.90;;;;;;4178564;28;20028;-61
2023/07/11 04:00:36;;;;;;;11.43;5.90;;;18.40;99.90;;;;;;4158561;28;20179;-59
2023/07/11 04:02:38;;;;;;;7.03;5.68;;;18.70;99.90;;;;;;4177734;28;20037;-61
2023/07/11 04:04:39;;;;;;;8.75;5.40;;;19.00;99.90;;;;;;4177360;28;20102;-56
2023/07/11 04:06:41;;;;;;;10.88;5.75;;;19.20;99.90;;;;;;4178469;28;20120;-59
2023/07/11 04:08:43;;;;;;;9.57;5.72;;;19.30;99.90;;;;;;4177624;28;20044;-66
2023/07/11 04:10:44;;;;;;;7.75;5.60;;;19.50;99.90;;;;;;4178231;28;20055;-61
2023/07/11 04:12:45;;;;;;;11.27;5.47;;;19.70;99.90;;;;;;4177887;28;20033;-60
2023/07/11 04:14:47;;;;;;;9.60;5.35;;;19.80;99.90;;;;;;4177590;28;20027;-60
2023/07/11 04:16:48;;;;;;;9.07;5.43;;;19.80;99.90;;;;;;4177562;28;20028;-61
2023/07/11 04:18:50;;;;;;;7.35;4.85;;;19.70;99.90;;;;;;4176696;28;20143;-61
2023/07/11 04:20:51;;;;;;;7.68;5.00;;;19.70;99.90;;;;;;4178063;28;20102;-61
2023/07/11 04:22:52;;;;;;;7.82;5.15;;;19.70;99.90;;;;;;4177094;28;20037;-60
2023/07/11 04:24:53;;;;;;;6.20;4.50;;;19.60;99.90;;;;;;4177919;28;20033;-55
2023/07/11 04:26:54;;;;;;;6.00;4.80;;;19.60;99.90;;;;;;4174161;28;20206;-59
2023/07/11 04:28:55;;;;;;;13.07;5.50;;;19.50;99.90;;;;;;4178281;28;20090;-60
2023/07/11 04:30:57;;;;;;;6.20;5.35;;;19.60;99.90;;;;;;4175942;28;20438;-60
2023/07/11 04:32:58;;;;;;;10.63;4.80;;;19.60;99.90;;;;;;4177438;28;20048;-60
2023/07/11 04:34:59;;;;;;;10.70;6.53;;;19.40;99.90;;;;;;4176642;28;20036;-60
2023/07/11 04:37:00;;;;;;;12.80;5.63;;;19.50;99.90;;;;;;4177827;28;20099;-60
2023/07/11 04:39:03;;;;;;;10.57;6.28;;;19.50;99.90;;;;;;4176424;28;20095;-59
2023/07/11 04:41:05;;;;;;;10.10;5.43;;;19.50;99.90;;;;;;4177099;28;20053;-60
2023/07/11 04:43:06;;;;;;;8.85;5.03;;;19.40;99.90;;;;;;4168834;28;20045;-59
2023/07/11 04:45:08;;;;;;;12.55;7.43;;;19.40;99.90;;;;;;4176791;28;20094;-60
2023/07/11 04:47:10;;;;;;;13.05;5.30;;;19.30;99.90;;;;;;4176735;28;20083;-62
2023/07/11 04:49:11;;;;;;;7.93;4.93;;;19.30;99.90;;;;;;4157447;28;20038;-59
2023/07/11 04:51:13;;;;;;;8.70;5.15;;;19.30;99.90;;;;;;4177560;28;20037;-61
2023/07/11 04:53:14;;;;;;;7.97;5.07;;;19.30;99.90;;;;;;4177070;28;20032;-59
2023/07/11 04:55:15;;;;;;;8.05;4.88;;;19.40;99.90;;;;;;4177110;28;20471;-60
2023/07/11 04:57:16;;;;;;;6.32;4.57;;;19.50;99.90;;;;;;4176682;28;20025;-69
2023/07/11 04:59:17;;;;;;;11.82;5.78;;;19.70;99.90;;;;;;4177757;28;20037;-62
2023/07/11 05:01:19;;;;;;;7.13;4.88;;;20.30;99.90;;;;;;4175391;28;20110;-68
2023/07/11 05:03:20;;;;;;;7.38;4.97;;;20.90;99.90;;;;;;4175466;28;20102;-61
2023/07/11 05:05:22;;;;;;;7.95;5.05;;;21.60;99.90;;;;;;4176703;28;20044;-63
2023/07/11 05:07:23;;;;;;;10.02;5.90;;;22.30;99.90;;;;;;4176910;28;20033;-61
2023/07/11 05:09:25;;;;;;;5.35;4.53;;;22.90;99.90;;;;;;4176534;28;20036;-61
2023/07/11 05:11:26;;;;;;;12.38;6.95;;;23.20;99.90;;;;;;4177243;28;20021;-61
2023/07/11 05:13:28;;;;;;;11.77;5.05;;;23.40;99.90;;;;;;4176430;28;20103;-62
2023/07/11 05:15:29;;;;;;;9.23;5.00;;;23.50;99.90;;;;;;4176587;28;20020;-60
2023/07/11 05:17:30;;;;;;;8.55;5.82;;;23.80;99.90;;;;;;4176297;28;20134;-62
2023/07/11 05:19:31;;;;;;;7.05;4.80;;;24.00;99.90;;;;;;4176650;28;20087;-60
2023/07/11 05:21:32;;;;;;;8.93;4.45;;;24.40;99.90;;;;;;4177504;28;20497;-59
2023/07/11 05:23:34;;;;;;;7.95;5.07;;;24.80;99.90;;;;;;4176390;28;20064;-60
2023/07/11 05:25:37;;;;;;;5.30;3.90;;;25.10;99.90;;;;;;4177585;28;20687;-60
2023/07/11 05:27:38;;;;;;;6.10;4.40;;;25.40;99.90;;;;;;4175852;28;20457;-65
2023/07/11 05:29:40;;;;;;;4.47;3.92;;;25.90;99.90;;;;;;4177600;28;20385;-61
2023/07/11 05:31:41;;;;;;;6.90;4.13;;;26.50;99.90;;;;;;4176360;28;20021;-59
2023/07/11 05:33:43;;;;;;;5.20;3.53;;;26.70;99.90;;;;;;4176705;28;20048;-60
2023/07/11 05:38:14;;;;;;;5.43;3.80;;;27.10;98.80;;;;;;4177243;28;20083;-60
2023/07/11 05:40:15;;;;;;;5.78;3.97;;;27.20;98.90;;;;;;4175621;28;20366;-63
2023/07/11 05:42:16;;;;;;;5.53;3.88;;;27.30;98.30;;;;;;4176203;28;20057;-61
2023/07/11 05:44:18;;;;;;;6.22;3.75;;;27.60;98.10;;;;;;4176038;28;20032;-60
2023/07/11 05:46:19;;;;;;;10.02;3.97;;;27.50;97.80;;;;;;4176439;28;20110;-60
2023/07/11 05:48:20;;;;;;;13.07;5.40;;;27.50;97.50;;;;;;4174862;28;20069;-59
2023/07/11 05:50:21;;;;;;;5.75;4.35;;;27.50;97.30;;;;;;4176620;28;20024;-61
2023/07/11 05:52:22;;;;;;;6.18;4.28;;;27.30;97.20;;;;;;4175822;28;20101;-60
2023/07/11 05:54:23;;;;;;;10.68;5.65;;;27.00;97.10;;;;;;4179649;28;20515;-61
2023/07/11 05:56:25;;;;;;;9.52;4.57;;;26.50;97.20;;;;;;4181269;28;20122;-60
2023/07/11 05:58:29;;;;;;;9.82;4.53;;;25.90;97.70;;;;;;4180865;28;20563;-59
2023/07/11 06:00:30;;;;;;;8.82;4.35;;;25.60;98.20;;;;;;4181971;28;20433;-61
2023/07/11 06:02:31;;;;;;;4.97;4.20;;;25.40;98.40;;;;;;4181214;28;20048;-60
2023/07/11 06:04:32;;;;;;;7.07;4.65;;;25.60;98.30;;;;;;4182644;28;20083;-59
2023/07/11 06:06:41;;;;;;;7.28;4.50;;;25.30;98.30;;;;;;4181527;28;20102;-61
2023/07/11 06:08:42;;;;;;;7.63;4.80;;;25.30;98.30;;;;;;4182616;28;20075;-60
2023/07/11 06:10:44;;;;;;;10.00;5.00;;;25.40;98.30;;;;;;4181364;28;20025;-59
2023/07/11 06:12:45;;;;;;;12.15;4.88;;;25.50;98.20;;;;;;4182451;28;20025;-59
2023/07/11 06:14:46;;;;;;;11.40;5.18;;;25.30;98.20;;;;;;4180374;28;20037;-58
2023/07/11 06:16:48;;;;;;;15.40;5.97;;;24.80;98.80;;;;;;4182605;28;20033;-61
2023/07/11 06:18:52;;;;;;;17.38;5.75;;;24.60;99.40;;;;;;4181440;28;20359;-60
2023/07/11 06:20:53;;;;;;;8.02;5.63;;;24.30;99.80;;;;;;4181994;28;20029;-59
2023/07/11 06:22:55;;;;;;;13.40;5.72;;;24.20;99.90;;;;;;4182020;28;20049;-61
2023/07/11 06:24:58;;;;;;;11.77;5.35;;;24.20;99.90;;;;;;4181405;28;20535;-60
2023/07/11 06:27:00;;;;;;;15.85;6.05;;;24.20;99.90;;;;;;4181807;28;20021;-59
2023/07/11 06:29:01;;;;;;;8.40;5.30;;;24.30;99.90;;;;;;4181917;28;20025;-62
2023/07/11 06:31:02;;;;;;;12.23;6.65;;;24.40;99.90;;;;;;4181497;28;20068;-60
2023/07/11 06:33:03;;;;;;;13.35;5.97;;;24.30;99.90;;;;;;4181131;28;20053;-61
2023/07/11 06:35:05;;;;;;;11.60;5.97;;;24.10;99.90;;;;;;4181636;28;20045;-60
2023/07/11 06:37:06;;;;;;;12.32;6.20;;;23.90;99.90;;;;;;4181358;28;20468;-60
2023/07/11 06:39:08;;;;;;;15.68;6.95;;;23.50;99.90;;;;;;4181476;28;20040;-58
2023/07/11 06:41:09;;;;;;;15.00;6.50;;;23.20;99.90;;;;;;4181203;28;20025;-60
2023/07/11 06:43:10;;;;;;;11.40;6.78;;;23.00;99.90;;;;;;4182313;28;20578;-59
2023/07/11 06:45:11;;;;;;;26.38;10.38;;;22.70;99.90;;;;;;4180769;28;20087;-60
2023/07/11 06:47:12;;;;;;;16.05;7.20;;;22.30;99.90;;;;;;4182386;28;20118;-60
2023/07/11 06:49:13;;;;;;;13.45;6.75;;;22.10;99.90;;;;;;4180537;28;20045;-60
2023/07/11 06:51:15;;;;;;;14.25;7.55;;;21.80;99.90;;;;;;4164092;28;20049;-60
2023/07/11 06:53:16;;;;;;;15.18;7.55;;;21.60;99.90;;;;;;4181591;28;20025;-61
2023/07/11 06:55:17;;;;;;;15.45;8.23;;;21.50;99.90;;;;;;4181175;28;20033;-61
2023/07/11 06:57:18;;;;;;;12.48;7.90;;;21.20;99.90;;;;;;4180813;28;20041;-59
2023/07/11 06:59:20;;;;;;;14.05;8.25;;;21.20;99.90;;;;;;4181252;28;20049;-60
2023/07/11 07:01:22;;;;;;;17.55;7.65;;;21.10;99.90;;;;;;4180967;28;20086;-60
2023/07/11 07:03:23;;;;;;;13.02;7.65;;;21.10;99.90;;;;;;4181131;28;20055;-63
2023/07/11 07:05:24;;;;;;;13.52;7.20;;;21.10;99.90;;;;;;4179174;28;20056;-61
2023/07/11 07:07:26;;;;;;;13.77;6.78;;;21.10;99.90;;;;;;4177637;28;20118;-61
2023/07/11 07:09:27;;;;;;;14.52;7.70;;;21.10;99.90;;;;;;4179141;28;20102;-60
2023/07/11 07:11:28;;;;;;;9.80;6.47;;;21.10;99.90;;;;;;4177254;28;20029;-61
2023/07/11 07:13:30;;;;;;;13.05;7.13;;;21.10;99.90;;;;;;4178676;28;20113;-58
2023/07/11 07:15:31;;;;;;;10.43;6.93;;;21.20;99.90;;;;;;4178179;28;20033;-59
2023/07/11 07:17:33;;;;;;;12.85;7.70;;;21.30;99.90;;;;;;4179599;28;20559;-60
2023/07/11 07:19:34;;;;;;;12.10;6.95;;;21.30;99.90;;;;;;4178220;28;20388;-64
2023/07/11 07:21:35;;;;;;;9.63;6.90;;;21.30;99.90;;;;;;4179530;28;20036;-65
2023/07/11 07:23:36;;;;;;;11.73;7.05;;;21.40;99.90;;;;;;4178523;28;20136;-59
2023/07/11 07:25:37;;;;;;;13.00;7.97;;;21.40;99.90;;;;;;4179078;28;20029;-61
2023/07/11 07:27:39;;;;;;;15.63;7.53;;;21.60;99.90;;;;;;4178499;28;20028;-61
2023/07/11 07:29:40;;;;;;;16.85;7.60;;;21.70;99.90;;;;;;4178360;28;20460;-59
2023/07/11 07:31:41;;;;;;;10.77;7.03;;;21.90;99.90;;;;;;4178126;28;20090;-60
2023/07/11 07:33:44;;;;;;;10.68;7.60;;;22.00;99.90;;;;;;4177863;28;20102;-59
2023/07/11 07:35:45;;;;;;;11.38;6.78;;;22.00;99.90;;;;;;4178317;28;20052;-60
2023/07/11 07:37:47;;;;;;;10.27;6.68;;;22.00;99.90;;;;;;4177151;28;20036;-60
2023/07/11 07:39:48;;;;;;;11.93;7.40;;;21.90;99.90;;;;;;4179003;28;20543;-61
2023/07/11 07:41:49;;;;;;;10.75;7.60;;;21.80;99.90;;;;;;4177642;28;20436;-60
2023/07/11 07:43:51;;;;;;;11.95;7.53;;;21.70;99.90;;;;;;4178306;28;20550;-59
2023/07/11 07:45:53;;;;;;;9.60;6.88;;;21.60;99.90;;;;;;4177894;28;20090;-63
2023/07/11 07:47:54;;;;;;;9.55;6.72;;;21.50;99.90;;;;;;4160661;28;20053;-58
2023/07/11 07:49:55;;;;;;;11.60;7.28;;;21.50;99.90;;;;;;4176928;28;20083;-63
2023/07/11 07:51:57;;;;;;;11.23;6.93;;;21.40;99.90;;;;;;4178324;28;20045;-60
2023/07/11 07:53:58;;;;;;;14.40;7.32;;;21.30;99.90;;;;;;4177806;28;20049;-60
2023/07/11 07:56:17;;;;;;;15.68;8.27;;;21.20;99.90;;;;;;4178129;28;20460;-60
2023/07/11 07:58:18;;;;;;;25.97;8.47;;;21.10;99.90;;;;;;4177891;28;20029;-60
2023/07/11 08:00:19;;;;;;;11.85;7.72;;;20.90;99.90;;;;;;4178068;28;20158;-63
2023/07/11 08:02:21;;;;;;;13.50;7.72;;;20.80;99.90;;;;;;4177650;28;20048;-62
2023/07/11 08:04:22;;;;;;;9.13;6.88;;;20.70;99.90;;;;;;4178361;28;20025;-60
2023/07/11 08:06:23;;;;;;;10.70;8.02;;;20.70;99.90;;;;;;4177714;28;20124;-61
2023/07/11 08:08:25;;;;;;;9.35;7.00;;;20.60;99.90;;;;;;4177941;28;20021;-59
2023/07/11 08:10:26;;;;;;;9.57;6.93;;;20.60;99.90;;;;;;4178585;28;20029;-60
2023/07/11 08:12:27;;;;;;;11.35;7.45;;;20.60;99.90;;;;;;4177019;28;20472;-62
2023/07/11 08:14:28;;;;;;;10.32;6.90;;;20.70;99.90;;;;;;4177916;28;20041;-59
2023/07/11 08:16:30;;;;;;;11.13;7.53;;;20.60;99.90;;;;;;4176428;28;20044;-59
2023/07/11 08:18:32;;;;;;;8.30;6.50;;;20.70;99.90;;;;;;4178552;28;20075;-59
2023/07/11 08:20:33;;;;;;;10.32;6.50;;;20.60;99.90;;;;;;4176417;28;20551;-56
2023/07/11 08:22:34;;;;;;;9.60;6.63;;;20.50;99.90;;;;;;4178629;28;20049;-59
2023/07/11 08:24:35;;;;;;;9.65;8.30;;;20.50;99.90;;;;;;4177010;28;20186;-61
2023/07/11 08:26:37;;;;;;;10.43;7.45;;;20.60;99.90;;;;;;4178610;28;20029;-57
2023/07/11 08:28:41;;;;;;;12.00;6.80;;;20.70;99.90;;;;;;4177185;28;20087;-60
2023/07/11 08:30:42;;;;;;;9.18;6.88;;;20.70;99.90;;;;;;4177189;28;20048;-59
2023/07/11 08:32:43;;;;;;;9.25;7.20;;;20.60;99.90;;;;;;4175993;28;20456;-59
2023/07/11 08:34:45;;;;;;;12.35;7.45;;;20.60;99.90;;;;;;4176937;28;20133;-59
2023/07/11 08:36:46;;;;;;;17.10;8.40;;;20.50;99.90;;;;;;4176515;28;20110;-59
2023/07/11 08:38:47;;;;;;;9.55;7.22;;;20.40;99.90;;;;;;4176696;28;20105;-59
2023/07/11 08:40:49;;;;;;;12.20;7.07;;;20.40;99.90;;;;;;4176891;28;20074;-59
2023/07/11 08:42:51;;;;;;;9.45;7.13;;;20.40;99.90;;;;;;4175881;28;20118;-61
2023/07/11 08:45:27;;;;;;;20.45;7.78;;;20.40;99.90;;;;;;4177334;28;20033;-60
2023/07/11 08:47:33;;;;;;;18.15;8.25;;;20.50;99.90;;;;;;4177323;28;20095;-60
2023/07/11 08:49:54;;;;;;;15.05;8.65;;;20.60;99.90;;;;;;4177567;28;20029;-59
2023/07/11 08:51:59;;;;;;;12.80;8.05;;;20.80;99.90;;;;;;4177208;28;20086;-61
2023/07/11 08:54:20;;;;;;;11.40;7.35;;;21.10;99.90;;;;;;4176958;28;20478;-60
2023/07/11 08:56:36;;;;;;;8.93;7.10;;;21.40;99.90;;;;;;4176668;28;20045;-61
2023/07/11 08:58:38;;;;;;;11.68;7.22;;;21.70;99.90;;;;;;4176891;28;20082;-60
2023/07/11 09:00:43;;;;;;;12.02;7.07;;;22.10;99.90;;;;;;4176640;28;20036;-65
2023/07/11 09:03:06;;;;;;;8.95;7.65;;;22.30;99.90;;;;;;4176963;28;20519;-61
2023/07/11 09:05:44;;;;;;;13.63;7.85;;;22.60;99.90;;;;;;4177518;28;20055;-60
2023/07/11 09:07:45;;;;;;;7.53;6.50;;;22.90;99.90;;;;;;4163162;28;20037;-61
2023/07/11 09:09:47;;;;;;;11.85;8.30;;;23.20;99.90;;;;;;4177629;28;20102;-61
2023/07/11 09:11:59;;;;;;;9.73;7.30;;;23.20;99.90;;;;;;4176429;28;20067;-59
2023/07/11 09:14:26;;;;;;;11.02;7.07;;;23.20;99.90;;;;;;4176945;28;20422;-60
2023/07/11 09:16:33;;;;;;;9.00;7.00;;;23.30;99.90;;;;;;4176476;28;20045;-63
2023/07/11 09:18:53;;;;;;;8.68;7.22;;;23.30;99.90;;;;;;4177655;28;20452;-60
2023/07/11 09:21:32;;;;;;;7.57;6.82;;;23.40;99.90;;;;;;4175936;28;20041;-60
2023/07/11 09:23:53;;;;;;;10.73;6.93;;;23.50;99.90;;;;;;4162762;28;20108;-59
2023/07/11 09:25:59;;;;;;;9.68;6.60;;;23.60;99.90;;;;;;4175707;28;20119;-60
2023/07/11 09:28:13;;;;;;;12.68;6.70;;;24.00;99.90;;;;;;4176325;28;20098;-60
2023/07/11 09:30:18;;;;;;;11.15;6.60;;;24.20;99.90;;;;;;4176460;28;20440;-59
2023/07/11 09:32:20;;;;;;;12.98;7.43;;;24.20;99.90;;;;;;4177360;28;20351;-59
2023/07/11 09:34:28;;;;;;;12.05;7.15;;;24.40;99.90;;;;;;4176412;28;20420;-60
2023/07/11 09:36:37;;;;;;;9.40;7.07;;;24.30;99.90;;;;;;4177322;28;20546;-59
2023/07/11 09:38:47;;;;;;;10.88;6.68;;;24.40;99.90;;;;;;4175786;28;20472;-62
2023/07/11 09:40:57;;;;;;;11.20;7.00;;;24.60;99.90;;;;;;4177279;28;20101;-60
2023/07/11 09:42:58;;;;;;;10.98;7.15;;;24.90;99.90;;;;;;4176391;28;20155;-61
2023/07/11 09:45:05;;;;;;;9.75;5.70;;;25.10;99.90;;;;;;4177366;28;20033;-61
2023/07/11 09:47:16;;;;;;;13.25;7.28;;;25.30;99.90;;;;;;4176071;28;20436;-60
2023/07/11 09:49:23;;;;;;;11.07;7.65;;;25.60;99.90;;;;;;4177390;28;20063;-59
2023/07/11 09:51:40;;;;;;;8.75;7.10;;;25.80;99.90;;;;;;4176081;28;20079;-58
2023/07/11 09:53:46;;;;;;;9.10;6.30;;;25.90;99.90;;;;;;4176755;28;20447;-59
2023/07/11 09:55:54;;;;;;;9.52;6.32;;;26.00;99.90;;;;;;4175258;28;20037;-60
2023/07/11 09:57:55;;;;;;;9.50;6.22;;;26.00;99.90;;;;;;4177187;28;20083;-60
2023/07/11 10:00:04;;;;;;;11.18;7.18;;;26.20;99.90;;;;;;4175374;28;20033;-62
2023/07/11 10:02:14;;;;;;;7.38;6.35;;;26.40;99.90;;;;;;4176365;28;20110;-62
2023/07/11 10:04:20;;;;;;;17.92;9.00;;;26.50;99.90;;;;;;4176094;28;20094;-63
2023/07/11 10:06:30;;;;;;;8.77;7.22;;;26.60;99.90;;;;;;4176367;28;20025;-60
2023/07/11 10:08:36;;;;;;;9.48;6.75;;;26.70;99.90;;;;;;4175894;28;20493;-60
2023/07/11 10:11:03;;;;;;;12.25;6.28;;;26.80;99.90;;;;;;4176724;28;20037;-61
2023/07/11 10:13:11;;;;;;;9.48;5.90;;;26.80;99.90;;;;;;4176267;28;20071;-59
2023/07/11 10:15:15;;;;;;;9.05;5.75;;;26.90;99.90;;;;;;4177366;28;20079;-61
2023/07/11 10:17:25;;;;;;;9.75;5.28;;;26.90;99.90;;;;;;4176012;28;20032;-61
2023/07/11 10:19:27;;;;;;;10.23;6.50;;;27.00;99.90;;;;;;4177303;28;20094;-61
2023/07/11 10:21:31;;;;;;;6.22;5.55;;;26.90;99.90;;;;;;4176145;28;20083;-62
2023/07/11 10:23:35;;;;;;;7.97;5.03;;;26.90;99.90;;;;;;4177551;28;20087;-61
2023/07/11 10:25:36;;;;;;;6.88;4.88;;;27.00;99.90;;;;;;4175113;28;20037;-60
2023/07/11 10:27:38;;;;;;;7.95;4.97;;;27.10;99.90;;;;;;4175907;28;20049;-60
2023/07/11 10:29:47;;;;;;;8.90;5.35;;;27.30;99.90;;;;;;4175157;28;20452;-60
2023/07/11 10:31:52;;;;;;;8.93;5.07;;;27.40;99.90;;;;;;4175868;28;20118;-61
2023/07/11 10:34:06;;;;;;;15.27;6.32;;;27.50;99.90;;;;;;4175126;28;20052;-63
2023/07/11 10:36:24;;;;;;;7.60;4.57;;;27.40;99.90;;;;;;4175801;28;20045;-60
2023/07/11 10:38:43;;;;;;;13.13;5.20;;;27.50;99.90;;;;;;4175024;28;20462;-60
2023/07/11 10:40:47;;;;;;;5.82;4.18;;;27.70;99.90;;;;;;4177614;28;20029;-59